Terminal Aerodrome Forecast
Issued by NWS Cleveland, OH

Home | Current Version | Previous Version | Graphics & Text | Print | Product List | Glossary On
Versions: 1 2 3 4 5 6 7 8 9 10 11 12 13 14 15 16 17 18
838
FTUS41 KCLE 201720
TAFTOL
TAF
KTOL 201720Z 2018/2118 20004KT P6SM FEW040 SCT070
     FM210700 VRB03KT 4SM BR FEW040 SCT100
     FM210900 00000KT 2SM BR SCT040
      TEMPO 2111/2114 1/4SM FG OVC003
     FM211500 17005KT P6SM FEW030=

USA.gov is the U.S. government's official web portal to all federal, state and local government web resources and services.